createdAt,value
2022-08-23T00:02:01.390Z,101074.31
2022-08-23T00:05:09.197Z,101070.03
2022-08-23T00:08:13.239Z,101073.50
2022-08-23T00:11:33.663Z,101071.50
2022-08-23T00:14:40.449Z,101072.50
2022-08-23T00:17:46.231Z,101063.75
2022-08-23T00:20:49.692Z,101056.59
2022-08-23T00:23:52.778Z,101056.94
2022-08-23T00:27:07.657Z,101056.59
2022-08-23T00:30:13.282Z,101054.63
2022-08-23T00:33:17.636Z,101050.19
2022-08-23T00:36:20.678Z,101045.09
2022-08-23T00:39:24.197Z,101039.09
2022-08-23T00:42:53.905Z,101050.09
2022-08-23T00:46:22.657Z,101040.13
2022-08-23T00:49:26.118Z,101030.59
2022-08-23T00:52:35.193Z,101043.44
2022-08-23T00:55:39.126Z,101041.50
2022-08-23T00:58:43.744Z,101036.66
2022-08-23T01:01:46.981Z,101027.19
2022-08-23T01:04:55.643Z,101036.75
2022-08-23T01:08:01.055Z,101038.59
2022-08-23T01:11:11.668Z,101045.19
2022-08-23T01:14:26.855Z,101041.25
2022-08-23T01:17:37.326Z,101051.59
2022-08-23T01:20:47.756Z,101051.94
2022-08-23T01:23:56.901Z,101051.59
2022-08-23T01:27:00.495Z,101052.59
2022-08-23T01:30:06.018Z,101052.22
2022-08-23T01:33:11.233Z,101052.75
2022-08-23T01:36:18.518Z,101062.69
2022-08-23T01:39:25.950Z,101060.06
2022-08-23T01:42:29.235Z,101071.00
2022-08-23T01:45:33.099Z,101070.47
2022-08-23T01:48:36.583Z,101071.13
2022-08-23T01:51:40.889Z,101071.91
2022-08-23T01:54:46.534Z,101065.25
2022-08-23T01:57:54.128Z,101076.44
2022-08-23T02:00:57.577Z,101062.34
2022-08-23T02:04:04.764Z,101055.16
2022-08-23T02:07:08.314Z,101055.16
2022-08-23T02:10:12.779Z,101048.63
2022-08-23T02:13:16.338Z,101047.94
2022-08-23T02:16:26.084Z,101050.22
2022-08-23T02:19:32.781Z,101044.16
2022-08-23T02:22:39.626Z,101039.38
2022-08-23T02:25:44.545Z,101043.50
2022-08-23T02:28:51.694Z,101045.00
2022-08-23T02:32:00.010Z,101041.00
2022-08-23T02:35:05.587Z,101045.75
2022-08-23T02:38:13.461Z,101040.25
2022-08-23T02:41:18.473Z,101039.69
2022-08-23T02:44:22.546Z,101037.88
2022-08-23T02:47:26.021Z,101039.88
2022-08-23T02:50:42.958Z,101049.47
2022-08-23T02:53:48.605Z,101053.22
2022-08-23T02:56:54.333Z,101060.91
2022-08-23T02:59:58.009Z,101056.19
2022-08-23T03:03:01.278Z,101056.97
2022-08-23T03:06:25.623Z,101049.44
2022-08-23T03:09:27.523Z,101058.00
2022-08-23T03:12:33.689Z,101055.53
2022-08-23T03:15:37.144Z,101063.66
2022-08-23T03:18:41.160Z,101063.41
2022-08-23T03:21:44.251Z,101066.91
2022-08-23T03:24:48.494Z,101063.53
2022-08-23T03:27:55.162Z,101068.69
2022-08-23T03:30:58.815Z,101069.06
2022-08-23T03:34:01.804Z,101072.66
2022-08-23T03:37:06.509Z,101063.09
2022-08-23T03:40:11.962Z,101065.88
2022-08-23T03:43:16.629Z,101071.91
2022-08-23T03:46:23.891Z,101074.44
2022-08-23T03:49:31.969Z,101069.56
2022-08-23T03:52:35.060Z,101073.22
2022-08-23T03:55:42.358Z,101069.94
2022-08-23T03:58:51.073Z,101061.34
2022-08-23T04:01:55.132Z,101059.28
2022-08-23T04:04:58.517Z,101056.13
2022-08-23T04:08:33.289Z,101044.75
2022-08-23T04:11:37.084Z,101051.91
2022-08-23T04:14:45.537Z,101050.53
2022-08-23T04:17:48.692Z,101045.03
2022-08-23T04:20:53.041Z,101026.75
2022-08-23T04:23:58.872Z,101029.53
2022-08-23T04:27:02.195Z,101023.03
2022-08-23T04:30:08.475Z,101026.06
2022-08-23T04:33:15.152Z,101023.50
2022-08-23T04:36:21.052Z,101034.97
2022-08-23T04:39:26.881Z,101032.22
2022-08-23T04:42:32.211Z,101030.75
2022-08-23T04:45:39.444Z,101028.00
2022-08-23T04:48:45.158Z,101040.00
2022-08-23T04:51:53.507Z,101041.72
2022-08-23T04:54:57.581Z,101046.84
2022-08-23T04:58:18.257Z,101053.94
2022-08-23T05:01:24.676Z,101043.38
2022-08-23T05:04:29.382Z,101049.66
2022-08-23T05:07:42.678Z,101057.16
2022-08-23T05:10:47.168Z,101063.25
2022-08-23T05:13:51.450Z,101065.72
2022-08-23T05:16:57.430Z,101076.50
2022-08-23T05:20:01.608Z,101072.59
2022-08-23T05:23:05.699Z,101074.63
2022-08-23T05:26:12.642Z,101066.25
2022-08-23T05:29:18.588Z,101067.25
2022-08-23T05:32:30.410Z,101063.63
2022-08-23T05:35:36.252Z,101070.72
2022-08-23T05:38:40.612Z,101069.72
2022-08-23T05:41:45.446Z,101078.31
2022-08-23T05:44:48.502Z,101074.03
2022-08-23T05:47:55.739Z,101068.47
2022-08-23T05:51:15.455Z,101066.81
2022-08-23T05:54:18.576Z,101076.75
2022-08-23T05:57:27.010Z,101074.41
2022-08-23T06:00:37.403Z,101067.09
2022-08-23T06:03:45.073Z,101064.81
2022-08-23T06:06:48.503Z,101084.34
2022-08-23T06:09:51.645Z,101101.53
2022-08-23T06:12:54.706Z,101086.91
2022-08-23T06:15:58.613Z,101077.94
2022-08-23T06:19:05.151Z,101088.88
2022-08-23T06:22:23.387Z,101089.38
2022-08-23T06:25:26.790Z,101104.94
2022-08-23T06:28:36.531Z,101100.69
2022-08-23T06:31:55.863Z,101094.19
2022-08-23T06:35:33.314Z,101096.38
2022-08-23T06:38:47.363Z,101118.41
2022-08-23T06:42:37.696Z,101118.06
2022-08-23T06:45:39.890Z,101121.44
2022-08-23T06:48:45.671Z,101130.53
2022-08-23T06:51:53.280Z,101137.66
2022-08-23T06:55:08.601Z,101139.63
2022-08-23T06:58:28.380Z,101138.16
2022-08-23T07:01:47.575Z,101146.00
2022-08-23T07:04:55.645Z,101142.88
2022-08-23T07:08:21.774Z,101150.66
2022-08-23T07:11:25.347Z,101149.72
2022-08-23T07:14:29.642Z,101150.69
2022-08-23T07:17:32.623Z,101152.50
2022-08-23T07:20:35.791Z,101143.28
2022-08-23T07:23:46.420Z,101147.97
2022-08-23T07:26:52.046Z,101140.72
2022-08-23T07:29:55.310Z,101155.78
2022-08-23T07:32:58.888Z,101159.25
2022-08-23T07:36:08.791Z,101146.41
2022-08-23T07:39:15.528Z,101162.31
2022-08-23T07:42:23.559Z,101167.16
2022-08-23T07:45:29.310Z,101175.59
2022-08-23T07:48:53.456Z,101165.38
2022-08-23T07:52:01.273Z,101184.25
2022-08-23T07:55:06.991Z,101180.94
2022-08-23T07:58:28.604Z,101180.81
2022-08-23T08:01:46.691Z,101187.59
2022-08-23T08:04:49.946Z,101197.34
2022-08-23T08:07:53.478Z,101201.66
2022-08-23T08:10:58.787Z,101193.75
2022-08-23T08:14:05.413Z,101209.13
2022-08-23T08:17:09.377Z,101207.81
2022-08-23T08:20:35.187Z,101208.81
2022-08-23T08:23:58.681Z,101221.09
2022-08-23T08:27:12.920Z,101223.13
2022-08-23T08:30:16.074Z,101216.19
2022-08-23T08:33:19.776Z,101224.13
2022-08-23T08:36:38.001Z,101216.47
2022-08-23T08:39:46.277Z,101222.31
2022-08-23T08:43:11.411Z,101229.59
2022-08-23T08:46:22.982Z,101220.47
2022-08-23T08:49:38.227Z,101226.41
2022-08-23T08:52:46.634Z,101241.31
2022-08-23T08:56:02.987Z,101243.31
2022-08-23T08:59:17.002Z,101256.91
2022-08-23T09:02:33.238Z,101254.59
2022-08-23T09:05:48.487Z,101270.84
2022-08-23T09:09:08.798Z,101253.75
2022-08-23T09:12:37.660Z,101259.22
2022-08-23T09:15:49.594Z,101264.81
2022-08-23T09:18:54.604Z,101273.09
2022-08-23T09:22:01.862Z,101273.91
2022-08-23T09:25:10.815Z,101282.25
2022-08-23T09:28:24.923Z,101300.34
2022-08-23T09:31:44.110Z,101306.63
2022-08-23T09:34:50.090Z,101291.72
2022-08-23T09:38:00.236Z,101294.03
2022-08-23T09:41:19.166Z,101281.41
2022-08-23T09:44:39.278Z,101302.31
2022-08-23T09:47:46.917Z,101299.81
2022-08-23T09:50:55.260Z,101301.69
2022-08-23T09:54:11.574Z,101296.03
2022-08-23T09:57:24.377Z,101298.63
2022-08-23T10:00:32.480Z,101297.63
2022-08-23T10:03:37.114Z,101291.31
2022-08-23T10:06:53.016Z,101293.97
2022-08-23T10:10:23.272Z,101302.56
2022-08-23T10:13:27.731Z,101296.25
2022-08-23T10:16:42.047Z,101308.16
2022-08-23T10:19:55.833Z,101306.31
2022-08-23T10:23:15.431Z,101314.47
2022-08-23T10:26:29.057Z,101306.00
2022-08-23T10:29:41.061Z,101309.16
2022-08-23T10:33:07.247Z,101313.09
2022-08-23T10:36:24.519Z,101303.41
2022-08-23T10:39:30.851Z,101313.88
2022-08-23T10:42:44.647Z,101322.00
2022-08-23T10:45:50.157Z,101315.94
2022-08-23T10:49:04.132Z,101316.84
2022-08-23T10:52:15.086Z,101316.63
2022-08-23T10:55:36.825Z,101311.09
2022-08-23T10:58:47.677Z,101321.22
2022-08-23T11:02:00.856Z,101323.13
2022-08-23T11:05:23.955Z,101324.91
2022-08-23T11:08:47.485Z,101324.00
2022-08-23T11:12:20.166Z,101329.00
2022-08-23T11:15:44.542Z,101333.94
2022-08-23T11:18:51.211Z,101334.13
2022-08-23T11:22:16.175Z,101337.44
2022-08-23T11:25:43.752Z,101342.91
2022-08-23T11:28:48.013Z,101333.19
2022-08-23T11:32:03.279Z,101337.19
2022-08-23T11:35:30.664Z,101337.59
2022-08-23T11:39:09.475Z,101340.97
2022-08-23T11:42:20.344Z,101347.00
2022-08-23T11:45:33.331Z,101349.66
2022-08-23T11:48:43.383Z,101338.63
2022-08-23T11:51:57.876Z,101357.19
2022-08-23T11:55:26.174Z,101347.03
2022-08-23T11:58:53.731Z,101353.84
2022-08-23T12:02:00.430Z,101359.28
2022-08-23T12:05:21.363Z,101356.09
2022-08-23T12:08:55.745Z,101367.59
2022-08-23T12:12:28.649Z,101371.28
2022-08-23T12:19:06.874Z,101372.47
2022-08-23T12:22:16.421Z,101363.25
2022-08-23T12:25:22.094Z,101362.72
2022-08-23T12:28:39.409Z,101357.97
2022-08-23T12:31:53.239Z,101363.31
2022-08-23T12:35:18.901Z,101355.75
2022-08-23T12:38:36.408Z,101369.53
2022-08-23T12:41:56.294Z,101358.38
2022-08-23T12:45:05.672Z,101358.66
2022-08-23T12:48:12.467Z,101359.19
2022-08-23T12:51:17.255Z,101350.53
2022-08-23T12:54:25.069Z,101343.16
2022-08-23T12:57:35.979Z,101357.75
2022-08-23T13:00:43.629Z,101351.81
2022-08-23T13:03:54.148Z,101351.91
2022-08-23T13:07:04.704Z,101349.00
2022-08-23T13:10:09.797Z,101346.72
2022-08-23T13:13:16.031Z,101343.38
2022-08-23T13:16:30.500Z,101342.03
2022-08-23T13:19:33.963Z,101345.16
2022-08-23T13:22:40.615Z,101337.44
2022-08-23T13:25:44.107Z,101337.44
2022-08-23T13:29:03.847Z,101346.41
2022-08-23T13:32:06.994Z,101331.97
2022-08-23T13:35:34.120Z,101329.63
2022-08-23T13:38:38.965Z,101325.06
2022-08-23T13:41:45.111Z,101321.75
2022-08-23T13:44:48.895Z,101317.59
2022-08-23T13:47:58.250Z,101331.81
2022-08-23T13:51:24.597Z,101325.84
2022-08-23T13:54:31.547Z,101321.38
2022-08-23T13:57:37.155Z,101335.28
2022-08-23T14:00:45.819Z,101331.13
2022-08-23T14:03:59.060Z,101328.59
2022-08-23T14:07:02.931Z,101327.84
2022-08-23T14:10:10.157Z,101337.72
2022-08-23T14:13:15.331Z,101335.06
2022-08-23T14:16:33.491Z,101327.78
2022-08-23T14:23:08.702Z,101329.47
2022-08-23T14:26:21.870Z,101323.50
2022-08-23T14:29:29.100Z,101325.69
2022-08-23T14:32:33.281Z,101331.31
2022-08-23T14:35:37.599Z,101320.69
2022-08-23T14:38:43.094Z,101311.53
2022-08-23T14:41:52.139Z,101311.25
2022-08-23T14:44:55.677Z,101312.56
2022-08-23T14:47:58.977Z,101303.88
2022-08-23T14:51:02.793Z,101305.41
2022-08-23T14:54:08.839Z,101309.91
2022-08-23T14:57:13.597Z,101296.06
2022-08-23T15:00:18.032Z,101306.44
2022-08-23T15:03:26.271Z,101294.97
2022-08-23T15:07:06.990Z,101297.88
2022-08-23T15:10:11.005Z,101310.41
2022-08-23T15:13:22.924Z,101306.66
2022-08-23T15:16:33.496Z,101308.38
2022-08-23T15:19:37.113Z,101308.53
2022-08-23T15:22:55.326Z,101312.91
2022-08-23T15:26:00.152Z,101302.34
2022-08-23T15:29:05.608Z,101307.25
2022-08-23T15:32:10.525Z,101297.00
2022-08-23T15:35:16.227Z,101293.94
2022-08-23T15:38:23.006Z,101297.44
2022-08-23T15:41:28.209Z,101298.69
2022-08-23T15:44:33.482Z,101302.19
2022-08-23T15:47:48.162Z,101288.22
2022-08-23T15:50:52.562Z,101287.53
2022-08-23T15:53:57.922Z,101297.97
2022-08-23T15:57:01.835Z,101289.91
2022-08-23T16:00:10.655Z,101295.00
2022-08-23T16:03:19.016Z,101280.72
2022-08-23T16:06:24.941Z,101279.03
2022-08-23T16:09:29.383Z,101288.09
2022-08-23T16:12:34.087Z,101284.38
2022-08-23T16:15:40.754Z,101286.59
2022-08-23T16:18:44.259Z,101291.06
2022-08-23T16:21:47.716Z,101284.19
2022-08-23T16:24:50.856Z,101281.59
2022-08-23T16:27:54.051Z,101281.53
2022-08-23T16:30:58.412Z,101281.41
2022-08-23T16:34:03.880Z,101284.19
2022-08-23T16:37:09.623Z,101285.66
2022-08-23T16:40:13.427Z,101281.03
2022-08-23T16:43:16.490Z,101281.59
2022-08-23T16:46:23.065Z,101280.25
2022-08-23T16:49:26.154Z,101279.22
2022-08-23T16:52:34.676Z,101281.06
2022-08-23T16:55:39.554Z,101280.97
2022-08-23T16:58:43.333Z,101286.22
2022-08-23T17:01:51.561Z,101294.59
2022-08-23T17:04:54.703Z,101294.25
2022-08-23T17:07:58.903Z,101292.69
2022-08-23T17:11:03.290Z,101301.28
2022-08-23T17:14:06.762Z,101305.72
2022-08-23T17:17:11.505Z,101308.78
2022-08-23T17:20:20.142Z,101318.69
2022-08-23T17:23:23.591Z,101315.22
2022-08-23T17:26:26.723Z,101317.41
2022-08-23T17:29:34.535Z,101322.00
2022-08-23T17:32:43.146Z,101314.56
2022-08-23T17:35:46.431Z,101322.75
2022-08-23T17:38:49.426Z,101320.53
2022-08-23T17:41:52.558Z,101320.53
2022-08-23T17:44:55.546Z,101325.31
2022-08-23T17:48:00.201Z,101339.97
2022-08-23T17:51:03.858Z,101331.31
2022-08-23T17:54:08.077Z,101336.09
2022-08-23T17:57:13.937Z,101335.50
2022-08-23T18:00:50.150Z,101347.56
2022-08-23T18:04:00.355Z,101353.31
2022-08-23T18:07:50.566Z,101355.78
2022-08-23T18:11:45.467Z,101357.88
2022-08-23T18:15:12.338Z,101361.06
2022-08-23T18:18:52.027Z,101360.41
2022-08-23T18:22:10.105Z,101364.03
2022-08-23T18:25:16.894Z,101364.53
2022-08-23T18:28:20.739Z,101369.91
2022-08-23T18:31:23.837Z,101363.47
2022-08-23T18:34:27.767Z,101379.97
2022-08-23T18:37:32.392Z,101379.81
2022-08-23T18:40:45.150Z,101373.31
2022-08-23T18:43:49.100Z,101382.06
2022-08-23T18:46:52.579Z,101378.44
2022-08-23T18:49:55.699Z,101376.13
2022-08-23T18:53:01.202Z,101371.31
2022-08-23T18:56:05.311Z,101372.31
2022-08-23T18:59:08.288Z,101380.19
2022-08-23T19:02:11.389Z,101371.72
2022-08-23T19:05:14.694Z,101384.34
2022-08-23T19:08:19.369Z,101385.19
2022-08-23T19:11:24.437Z,101382.38
2022-08-23T19:14:28.162Z,101375.75
2022-08-23T19:17:31.153Z,101379.06
2022-08-23T19:20:35.331Z,101382.88
2022-08-23T19:23:39.644Z,101381.09
2022-08-23T19:26:47.233Z,101375.94
2022-08-23T19:29:50.885Z,101387.75
2022-08-23T19:32:54.920Z,101385.91
2022-08-23T19:35:58.636Z,101389.22
2022-08-23T19:39:03.446Z,101394.88
2022-08-23T19:42:11.579Z,101394.22
2022-08-23T19:45:16.129Z,101390.03
2022-08-23T19:48:20.258Z,101394.56
2022-08-23T19:51:24.662Z,101395.22
2022-08-23T19:54:29.497Z,101400.81
2022-08-23T19:57:33.941Z,101396.69
2022-08-23T20:00:38.292Z,101400.16
2022-08-23T20:03:41.854Z,101397.97
2022-08-23T20:06:44.875Z,101400.97
2022-08-23T20:09:49.214Z,101404.44
2022-08-23T20:12:52.196Z,101405.75
2022-08-23T20:15:56.409Z,101399.81
2022-08-23T20:19:01.246Z,101405.09
2022-08-23T20:22:23.620Z,101410.06
2022-08-23T20:25:29.126Z,101403.09
2022-08-23T20:28:32.301Z,101403.09
2022-08-23T20:31:39.261Z,101408.88
2022-08-23T20:34:42.655Z,101405.22
2022-08-23T20:37:45.726Z,101414.66
2022-08-23T20:40:50.065Z,101407.53
2022-08-23T20:43:57.091Z,101404.69
2022-08-23T20:47:03.085Z,101400.03
2022-08-23T20:50:07.675Z,101403.00
2022-08-23T20:53:12.731Z,101396.69
2022-08-23T20:56:17.730Z,101405.34
2022-08-23T20:59:23.526Z,101395.63
2022-08-23T21:02:27.013Z,101392.63
2022-08-23T21:05:30.015Z,101406.72
2022-08-23T21:08:33.317Z,101388.28
2022-08-23T21:11:40.263Z,101387.97
2022-08-23T21:14:43.361Z,101386.28
2022-08-23T21:17:47.804Z,101381.00
2022-08-23T21:20:51.261Z,101379.63
2022-08-23T21:23:55.303Z,101365.66
2022-08-23T21:26:59.781Z,101377.31
2022-08-23T21:30:03.238Z,101374.47
2022-08-23T21:33:07.760Z,101366.66
2022-08-23T21:36:12.284Z,101372.66
2022-08-23T21:39:15.290Z,101363.34
2022-08-23T21:42:23.650Z,101352.34
2022-08-23T21:45:27.571Z,101358.44
2022-08-23T21:48:31.868Z,101359.09
2022-08-23T21:51:38.298Z,101350.59
2022-08-23T21:54:43.607Z,101361.72
2022-08-23T21:57:48.534Z,101350.81
2022-08-23T22:00:51.841Z,101340.88
2022-08-23T22:03:57.108Z,101338.00
2022-08-23T22:07:00.986Z,101331.16
2022-08-23T22:10:07.358Z,101325.34
2022-08-23T22:13:11.661Z,101326.16
2022-08-23T22:16:14.785Z,101317.56
2022-08-23T22:19:19.739Z,101319.16
2022-08-23T22:22:24.961Z,101313.19
2022-08-23T22:25:28.323Z,101311.53
2022-08-23T22:28:34.126Z,101304.66
2022-08-23T22:31:39.385Z,101305.50
2022-08-23T22:34:42.431Z,101304.16
2022-08-23T22:38:03.682Z,101305.28
2022-08-23T22:41:09.224Z,101303.78
2022-08-23T22:44:13.769Z,101307.34
2022-08-23T22:47:16.751Z,101289.81
2022-08-23T22:50:19.774Z,101277.97
2022-08-23T22:53:23.727Z,101274.59
2022-08-23T22:56:30.310Z,101277.88
2022-08-23T22:59:34.683Z,101268.47
2022-08-23T23:02:38.939Z,101267.41
2022-08-23T23:05:43.661Z,101263.75
2022-08-23T23:08:46.754Z,101262.66
2022-08-23T23:11:50.054Z,101258.63
2022-08-23T23:14:54.339Z,101257.00
2022-08-23T23:17:59.741Z,101253.78
2022-08-23T23:21:04.997Z,101248.59
2022-08-23T23:24:09.311Z,101234.41
2022-08-23T23:27:12.305Z,101252.19
2022-08-23T23:30:16.690Z,101255.44
2022-08-23T23:33:23.685Z,101240.91
2022-08-23T23:36:26.810Z,101235.91
2022-08-23T23:39:29.942Z,101227.81
2022-08-23T23:42:33.004Z,101227.31
2022-08-23T23:45:38.179Z,101225.94
2022-08-23T23:48:43.534Z,101223.75
2022-08-23T23:51:46.532Z,101216.97
2022-08-23T23:54:49.861Z,101217.94
2022-08-23T23:57:53.289Z,101216.28
